Latest Coastal Weather Observations for Dunalley

IDT60701

Issued at 5:12 pm EST Tuesday 16 August 2022 (issued every 10 minutes, with the page automatically refreshed every 10 minutes)

About coastal observations | Map of coastal stations | Coastal observations for TAS | Marine services | Other Formats
Station Details ID: 094254 Name: DUNALLEY (STROUD POINT) Lat: -42.90 Lon: 147.79 Height: 12.43 m
Data from the previous 72 hours. | See also: Recent months at Dunalley
Date/Time
EST
Wind Sea
Height
m
Swell Vis
km
Cloud Weather Temp
°C
Press
MSL
hPa
Rain since
9am
mm
Dir  Spd
kts
Gust
kts
Height
m
Period
s
Dir
16/05:00pm SW 14 19 - - - - - - - 11.4 1010.0 2.2
16/04:30pm SW 12 16 - - - - - - - 11.7 1009.5 2.2
16/04:00pm SW 9 13 - - - - - - - 11.3 1009.3 2.2
16/03:30pm SW 16 22 - - - - - - - 11.4 1008.8 2.2
16/03:00pm SW 18 22 - - - - - - - 11.6 1008.2 2.2
16/02:30pm SSW 18 21 - - - - - - - 11.9 1007.4 2.2
16/02:00pm SW 20 24 - - - - - - - 11.8 1007.1 2.2
16/01:30pm SW 17 23 - - - - - - - 11.8 1006.7 2.2
16/01:00pm WSW 18 23 - - - - - - - 11.6 1006.3 2.2
16/12:30pm WSW 18 20 - - - - - - - 11.3 1006.0 2.2
16/12:00pm WSW 15 18 - - - - - - Recent precip. 11.0 1005.9 2.2
16/11:30am W 16 19 - - - - - - - 10.6 1005.9 2.2
16/11:00am W 14 16 - - - - - - - 10.9 1005.7 2.0
16/10:30am W 11 14 - - - - - - - 10.7 1005.4 1.0
16/10:00am W 14 17 - - - - - - - 11.4 1005.2 0.6
16/09:30am W 14 16 - - - - - - - 10.4 1004.9 0.6
16/09:00am W 14 17 - - - - - - - 10.7 1004.4 11.2
16/08:30am W 13 15 - - - - - - - 10.4 1003.9 11.2
16/08:00am W 13 15 - - - - - - - 10.1 1003.3 11.2
16/07:30am W 11 13 - - - - - - - 9.8 1002.7 11.2
16/07:00am W 12 14 - - - - - - - 9.8 1002.2 11.2
16/06:30am W 13 15 - - - - - - - 10.0 1001.6 11.2
16/06:00am W 9 11 - - - - - - - 9.6 1001.1 11.2
16/05:30am W 11 13 - - - - - - - 9.6 1000.6 11.2
16/05:00am W 11 14 - - - - - - - 9.6 1000.2 11.2
16/04:30am W 10 13 - - - - - - - 9.6 999.9 10.8
16/04:00am W 12 14 - - - - - - - 9.8 999.4 10.4
16/03:30am W 10 12 - - - - - - - 9.9 998.9 10.0
16/03:00am W 7 8 - - - - - - Recent precip. 9.7 998.6 10.0
16/02:30am W 9 13 - - - - - - - 9.7 998.5 10.0
16/02:00am W 8 10 - - - - - - - 9.7 998.5 9.8
16/01:30am W 9 11 - - - - - - - 9.6 998.5 9.8
16/01:00am W 8 9 - - - - - - - 9.6 998.5 9.8
16/12:30am WSW 9 11 - - - - - - - 9.8 998.5 9.8
16/12:00am WSW 10 12 - - - - - - - 10.0 998.3 9.4
 
Date/Time
EST
Wind Sea
Height
m
Swell Vis
km
Cloud Weather Temp
°C
Press
MSL
hPa
Rain since
9am
mm
Dir  Spd
kts
Gust
kts
Height
m
Period
s
Dir
15/11:30pm W 8 11 - - - - - - - 9.7 998.0 9.4
15/11:00pm W 7 9 - - - - - - - 9.3 997.8 9.4
15/10:30pm WNW 4 6 - - - - - - - 9.3 997.9 9.4
15/10:00pm WNW 3 5 - - - - - - - 9.4 997.9 9.2
15/09:30pm W 4 5 - - - - - - - 9.0 997.6 9.2
15/09:00pm W 6 7 - - - - - - - 9.5 997.6 9.2
15/08:30pm W 6 7 - - - - - - - 9.8 997.5 9.2
15/08:00pm WNW 5 6 - - - - - - - 9.8 997.2 9.2
15/07:30pm WNW 3 3 - - - - - - - 9.9 997.2 9.2
15/07:00pm W 4 5 - - - - - - - 9.8 997.0 9.2
15/06:30pm WSW 4 4 - - - - - - - 10.1 996.8 9.2
15/06:00pm WSW 2 2 - - - - - - - 10.3 996.6 9.2
15/05:30pm WSW 1 1 - - - - - - - 10.5 996.4 9.2
15/05:00pm WSW 3 4 - - - - - - - 10.6 996.2 9.2
15/04:30pm WNW 3 4 - - - - - - - 10.8 996.1 9.2
15/04:00pm SW 3 4 - - - - - - - 10.7 996.0 9.0
15/03:30pm NE 4 5 - - - - - - - 10.6 996.1 9.0
15/03:00pm ENE 1 3 - - - - - - Recent precip. 10.8 996.0 8.6
15/02:30pm SSE 6 8 - - - - - - - 11.1 995.8 7.4
15/02:00pm SSE 3 5 - - - - - - - 12.4 995.8 6.8
15/01:30pm SE 6 12 - - - - - - - 11.4 996.0 6.8
15/01:00pm SSE 6 8 - - - - - - - 11.8 996.3 4.0
15/12:30pm SE 5 7 - - - - - - - 12.4 996.8 3.4
15/12:00pm ESE 11 14 - - - - - - Rain 11.4 997.2 3.4
15/11:30am ESE 7 11 - - - - - - - 12.5 997.7 2.8
15/11:00am ESE 9 13 - - - - - - - 12.4 998.0 2.8
15/10:30am E 11 15 - - - - - - - 12.8 997.9 2.8
15/10:00am ENE 12 16 - - - - - - - 13.0 998.1 2.8
15/09:30am ENE 8 13 - - - - - - - 12.6 998.5 2.8
15/09:00am ENE 8 13 - - - - - - Recent precip. 11.9 998.8 2.4
15/08:30am ESE 11 17 - - - - - - - 11.6 998.9 2.2
15/08:00am E 9 12 - - - - - - - 12.0 998.9 1.4
15/07:30am E 11 15 - - - - - - - 12.1 999.0 1.4
15/07:00am E 9 12 - - - - - - - 12.1 999.1 1.4
15/06:30am E 10 14 - - - - - - - 12.1 999.2 1.4
15/06:00am E 13 18 - - - - - - - 12.3 999.5 1.4
15/05:30am E 11 13 - - - - - - - 12.2 999.5 1.4
15/05:00am ENE 10 14 - - - - - - - 12.1 999.7 1.4
15/04:30am ENE 11 15 - - - - - - - 12.2 999.7 1.4
15/04:00am E 13 19 - - - - - - - 12.1 999.7 1.4
15/03:30am ENE 13 18 - - - - - - - 11.9 999.8 1.4
15/03:00am ENE 12 18 - - - - - - - 11.8 1000.0 1.4
15/02:30am ENE 15 20 - - - - - - - 12.1 1000.3 1.4
15/02:00am ENE 17 22 - - - - - - - 12.2 1000.5 1.4
15/01:30am ENE 18 24 - - - - - - - 12.1 1000.6 1.4
15/01:00am ENE 17 25 - - - - - - - 11.7 1000.7 1.4
15/12:30am ENE 18 23 - - - - - - - 12.4 1001.0 1.2
15/12:00am ENE 17 23 - - - - - - - 12.4 1001.1 1.2
 
Date/Time
EST
Wind Sea
Height
m
Swell Vis
km
Cloud Weather Temp
°C
Press
MSL
hPa
Rain since
9am
mm
Dir  Spd
kts
Gust
kts
Height
m
Period
s
Dir
14/11:30pm ENE 15 21 - - - - - - - 12.4 1001.2 1.2
14/11:00pm ENE 19 25 - - - - - - - 12.5 1001.1 1.2
14/10:30pm ENE 18 24 - - - - - - - 12.2 1001.1 1.2
14/10:00pm ENE 20 28 - - - - - - - 11.3 1001.2 1.2
14/09:30pm ENE 19 27 - - - - - - - 12.5 1001.1 1.0
14/09:00pm ENE 16 26 - - - - - - Recent precip. 12.6 1001.1 1.0
14/08:59pm ENE 16 26 - - - - - - - 12.6 1001.0 1.0
14/08:30pm ENE 15 22 - - - - - - - 12.0 1000.9 1.0
14/08:01pm ENE 21 35 - - - - - - - 11.7 1000.7 0.8
14/08:00pm ENE 21 30 - - - - - - - 12.1 1000.8 0.8
14/07:39pm ENE 18 28 - - - - - - - 12.9 1000.5 0.6
14/07:30pm ENE 17 25 - - - - - - - 12.7 1000.5 0.6
14/07:08pm E 21 31 - - - - - - - 12.7 1000.5 0.6
14/07:00pm E 24 32 - - - - - - - 12.6 1000.5 0.6
14/06:44pm E 21 32 - - - - - - - 12.9 1000.3 0.6
14/06:30pm E 21 28 - - - - - - - 13.1 1000.2 0.6
14/06:02pm E 18 30 - - - - - - - 13.1 1000.0 0.6
14/06:00pm E 17 27 - - - - - - - 12.9 1000.1 0.6
14/05:30pm E 18 25 - - - - - - - 12.8 1000.1 0.6
14/05:20pm E 19 31 - - - - - - - 12.9 1000.1 0.6
14/05:00pm E 17 23 - - - - - - - 12.9 1000.1 0.6
14/04:30pm E 18 23 - - - - - - - 13.6 999.9 0.6
14/04:15pm E 19 29 - - - - - - - 13.9 999.8 0.6
14/04:00pm E 15 23 - - - - - - - 13.8 999.9 0.6
14/03:44pm E 16 27 - - - - - - - 14.3 1000.0 0.6
14/03:30pm E 15 21 - - - - - - - 13.9 1000.0 0.6
14/03:00pm E 17 25 - - - - - - Recent precip. 14.0 1000.1 0.6
14/02:30pm E 19 25 - - - - - - - 14.3 1000.4 0.4
14/02:00pm E 18 23 - - - - - - - 14.6 1000.4 0.4
14/01:30pm ENE 20 27 - - - - - - - 14.5 1000.6 0.4
14/01:00pm E 17 23 - - - - - - - 14.8 1001.0 0.4
14/12:55pm E 18 28 - - - - - - - 14.9 1001.1 0.4
14/12:30pm ENE 18 25 - - - - - - - 15.6 1001.3 0.4
14/12:14pm ENE 20 31 - - - - - - - 15.2 1001.6 0.4
14/12:00pm ENE 19 26 - - - - - - - 14.9 1001.7 0.4
14/11:30am ENE 18 25 - - - - - - - 14.8 1001.7 0.4
14/11:00am E 18 27 - - - - - - - 13.6 1001.6 0.4
14/10:54am E 17 27 - - - - - - - 13.4 1001.6 0.4
14/10:30am ESE 19 27 - - - - - - - 13.3 1001.7 0.4
14/10:00am ESE 16 22 - - - - - - - 13.2 1001.9 0.4
14/09:30am E 18 26 - - - - - - - 12.9 1001.9 0.4
14/09:00am E 24 35 - - - - - - Rain 12.4 1002.0 38.6
14/08:30am ESE 19 30 - - - - - - - 12.1 1002.0 35.8
14/08:17am ESE 20 33 - - - - - - - 12.4 1002.2 35.0
14/08:00am SE 22 31 - - - - - - - 11.9 1002.7 33.4
14/07:30am SE 21 29 - - - - - - - 12.1 1003.1 31.8
14/07:21am SE 18 29 - - - - - - - 12.0 1003.0 31.2
14/07:00am SE 20 26 - - - - - - - 11.7 1003.3 30.0
14/06:30am SE 24 32 - - - - - - - 11.6 1003.7 28.0
14/06:17am SE 21 32 - - - - - - - 11.5 1003.8 27.0
14/06:00am SE 23 31 - - - - - - Rain 11.5 1004.1 25.2
14/05:30am SE 22 34 - - - - - - - 11.5 1004.8 22.6
14/05:28am SE 21 34 - - - - - - - 11.5 1004.8 22.4
14/05:00am SE 22 28 - - - - - - - 11.6 1005.4 20.0
14/04:30am SE 20 33 - - - - - - - 11.4 1005.9 18.0
14/04:21am SE 21 33 - - - - - - - 11.5 1006.0 17.6
14/04:00am SE 20 27 - - - - - - - 11.3 1006.5 16.6
14/03:42am SE 20 30 - - - - - - - 11.4 1006.8 15.4
14/03:30am SE 22 29 - - - - - - - 11.3 1007.1 14.8
14/03:00am SE 21 28 - - - - - - Rain 11.5 1008.0 13.4
14/02:30am SE 16 25 - - - - - - - 11.5 1008.7 12.2
14/02:00am ESE 18 27 - - - - - - - 11.6 1009.3 11.0
14/01:31am ESE 16 27 - - - - - - - 11.8 1009.8 10.2
14/01:30am ESE 16 24 - - - - - - - 11.7 1009.9 10.2
14/01:06am SE 17 28 - - - - - - - 11.4 1010.1 9.2
14/01:00am SE 17 23 - - - - - - - 11.3 1010.3 9.0
14/12:30am SE 17 23 - - - - - - - 11.5 1010.8 7.4
14/12:00am SE 14 22 - - - - - - Rain 11.3 1011.4 6.6
 
Date/Time
EST
Wind Sea
Height
m
Swell Vis
km
Cloud Weather Temp
°C
Press
MSL
hPa
Rain since
9am
mm
Dir  Spd
kts
Gust
kts
Height
m
Period
s
Dir
13/11:30pm ESE 14 21 - - - - - - - 11.7 1011.8 5.8
13/11:00pm SE 13 18 - - - - - - - 11.6 1012.2 4.8
13/10:30pm ESE 12 18 - - - - - - - 11.7 1012.8 4.6
13/10:00pm ESE 8 14 - - - - - - - 11.8 1013.5 4.4
13/09:30pm W 1 3 - - - - - - - 10.3 1014.0 4.2
13/09:00pm W 1 1 - - - - - - - 9.9 1014.3 3.8
13/08:30pm W 4 5 - - - - - - - 10.1 1014.4 3.8
13/08:00pm W 2 3 - - - - - - - 9.2 1014.9 3.8
13/07:30pm W 2 3 - - - - - - - 9.5 1014.9 3.8
13/07:00pm W 2 3 - - - - - - - 10.3 1015.1 3.8
13/06:30pm CALM 0 0 - - - - - - - 9.6 1015.1 3.8
13/06:00pm W 1 1 - - - - - - - 9.6 1015.2 3.8
13/05:30pm CALM 0 0 - - - - - - - 9.7 1015.3 3.8

Other formats

Comma delimited format used in spreadsheet applications
http://www.bom.gov.au/fwo/IDT60701/IDT60701.94951.axf

JavaScript Object Notation format (JSON) in row-major order
http://www.bom.gov.au/fwo/IDT60701/IDT60701.94951.json

Data quality

Most of these data are generated automatically and are frequently updated. Quality checks on data are not normally performed. It is possible for incorrect values to appear. Refer to information at About Latest Weather Observations and please check the disclaimer before using these data.